Time;durP1;ratioP1;P1;durP2;ratioP2;P2;SDS_P1;SDS_P2;PMS_P1;PMS_P2;Temp;Humidity;BMP_temperature;BMP_pressure;BME280_temperature;BME280_humidity;BME280_pressure;Samples;Min_cycle;Max_cycle;Signal;HPM_P1;HPM_P2
2023/07/21 00:00:19;;;;;;;12.82;10.88;;;;;;;17.49;100.00;101149.50;5048805;28;20040;-76
2023/07/21 00:02:52;;;;;;;12.32;11.13;;;;;;;17.49;100.00;101146.81;5043124;28;20605;-75
2023/07/21 00:05:18;;;;;;;11.55;10.15;;;;;;;17.50;100.00;101145.81;5046899;28;20037;-75
2023/07/21 00:07:47;;;;;;;16.83;9.82;;;;;;;17.45;100.00;101148.91;5043496;28;20055;-76
2023/07/21 00:10:16;;;;;;;10.60;9.50;;;;;;;17.48;100.00;101143.25;5061269;28;20044;-75
2023/07/21 00:12:49;;;;;;;11.60;10.25;;;;;;;17.21;100.00;101148.34;5039511;28;20033;-76
2023/07/21 00:15:21;;;;;;;10.05;8.45;;;;;;;17.18;100.00;101151.31;5042773;28;20025;-76
2023/07/21 00:17:47;;;;;;;10.52;9.43;;;;;;;17.01;100.00;101150.91;5047158;28;20119;-75
2023/07/21 00:20:21;;;;;;;11.80;10.35;;;;;;;16.96;100.00;101141.50;5053476;28;20029;-76
2023/07/21 00:22:47;;;;;;;11.32;10.20;;;;;;;17.02;100.00;101149.94;5049271;28;20039;-75
2023/07/21 00:25:13;;;;;;;11.18;9.68;;;;;;;17.04;100.00;101139.88;5036011;28;20143;-75
2023/07/21 00:27:43;;;;;;;13.10;11.25;;;;;;;17.00;100.00;101140.28;5043279;28;20839;-75
2023/07/21 00:30:09;;;;;;;12.52;11.25;;;;;;;16.93;100.00;101139.97;5048061;28;20654;-75
2023/07/21 00:32:45;;;;;;;11.90;10.70;;;;;;;16.83;100.00;101139.88;5025509;28;20037;-76
2023/07/21 00:35:21;;;;;;;11.90;9.88;;;;;;;16.87;100.00;101139.59;5059560;28;20088;-75
2023/07/21 00:37:46;;;;;;;12.32;11.13;;;;;;;16.78;100.00;101149.34;5047350;28;20053;-76
2023/07/21 00:40:23;;;;;;;11.70;10.50;;;;;;;16.75;100.00;101139.66;5058630;28;20665;-76
2023/07/21 00:42:49;;;;;;;11.55;10.35;;;;;;;16.79;100.00;101138.44;5066458;28;20036;-75
2023/07/21 00:45:17;;;;;;;10.55;9.45;;;;;;;16.85;100.00;101136.19;5049253;28;20923;-75
2023/07/21 00:47:47;;;;;;;11.63;10.43;;;;;;;16.92;100.00;101137.38;5043262;28;20076;-76
2023/07/21 00:50:15;;;;;;;16.63;10.73;;;;;;;16.90;100.00;101136.66;5038077;28;20106;-75
2023/07/21 00:52:46;;;;;;;12.10;10.25;;;;;;;16.93;100.00;101141.78;5044216;28;20033;-75
2023/07/21 00:55:17;;;;;;;13.95;11.25;;;;;;;16.85;100.00;101130.81;5044531;28;20040;-75
2023/07/21 00:57:46;;;;;;;10.85;9.73;;;;;;;16.78;100.00;101142.13;5067165;28;20045;-75
2023/07/21 01:00:15;;;;;;;10.60;9.50;;;;;;;16.71;100.00;101126.56;5026082;28;20033;-76
2023/07/21 01:02:49;;;;;;;12.95;10.35;;;;;;;16.67;100.00;101128.69;5064953;28;20033;-76
2023/07/21 01:05:17;;;;;;;13.23;9.02;;;;;;;16.75;100.00;101128.91;5044437;28;20031;-75
2023/07/21 01:07:46;;;;;;;8.70;7.85;;;;;;;16.86;100.00;101127.97;5048035;28;20033;-75
2023/07/21 01:10:20;;;;;;;8.65;7.75;;;;;;;16.89;100.00;101116.09;5050756;28;20029;-75
2023/07/21 01:12:46;;;;;;;10.10;7.75;;;;;;;16.85;100.00;101120.88;5081033;27;20036;-76
2023/07/21 01:15:15;;;;;;;9.20;8.30;;;;;;;16.73;100.00;101124.63;5087556;28;20052;-75
2023/07/21 01:17:44;;;;;;;8.40;7.32;;;;;;;16.65;100.00;101119.84;5055683;28;20050;-76
2023/07/21 01:20:17;;;;;;;9.55;7.20;;;;;;;16.73;100.00;101113.88;5058796;28;20051;-75
2023/07/21 01:22:52;;;;;;;7.97;6.97;;;;;;;16.72;100.00;101118.41;5053480;28;20037;-76
2023/07/21 01:25:18;;;;;;;9.43;8.48;;;;;;;16.58;100.00;101116.84;5047509;28;20072;-74
2023/07/21 01:27:48;;;;;;;10.15;8.32;;;;;;;16.48;100.00;101115.91;5050471;28;20338;-75
2023/07/21 01:30:19;;;;;;;12.85;8.88;;;;;;;16.53;100.00;101107.44;5050501;28;20056;-75
2023/07/21 01:32:46;;;;;;;10.77;9.43;;;;;;;16.50;100.00;101105.00;5084619;28;20140;-74
2023/07/21 01:35:21;;;;;;;10.95;8.38;;;;;;;16.47;100.00;101106.13;5051305;28;20411;-75
2023/07/21 01:37:49;;;;;;;9.02;8.13;;;;;;;16.48;100.00;101107.81;5050098;28;20047;-75
2023/07/21 01:40:22;;;;;;;10.02;8.88;;;;;;;16.45;100.00;101100.00;5041395;28;20032;-75
2023/07/21 01:42:51;;;;;;;10.52;8.38;;;;;;;16.49;100.00;101100.59;5047076;28;20037;-75
2023/07/21 01:45:17;;;;;;;9.85;8.52;;;;;;;16.49;100.00;101092.53;5047272;28;20173;-75
2023/07/21 01:47:48;;;;;;;12.18;9.52;;;;;;;16.49;100.00;101088.00;5047273;28;20033;-75
2023/07/21 01:50:18;;;;;;;14.30;10.13;;;;;;;16.43;100.00;101085.81;5026116;28;20044;-75
2023/07/21 01:52:45;;;;;;;10.45;9.10;;;;;;;16.34;100.00;101085.75;5030129;28;20044;-76
2023/07/21 01:55:22;;;;;;;12.45;9.15;;;;;;;16.33;100.00;101082.19;5046810;28;20033;-75
2023/07/21 01:57:57;;;;;;;12.00;8.88;;;;;;;16.26;100.00;101078.28;5075502;27;20134;-75
2023/07/21 02:00:28;;;;;;;8.68;7.78;;;;;;;16.19;100.00;101072.56;5045807;28;20118;-75
2023/07/21 02:02:55;;;;;;;8.75;7.93;;;;;;;16.10;100.00;101072.47;5079658;27;20089;-75
2023/07/21 02:05:25;;;;;;;8.15;7.35;;;;;;;16.15;100.00;101073.81;5047072;28;20061;-75
2023/07/21 02:07:53;;;;;;;9.88;8.10;;;;;;;16.03;100.00;101078.38;5046244;28;20532;-75
2023/07/21 02:10:20;;;;;;;10.15;8.40;;;;;;;15.98;100.00;101077.06;5039196;28;20307;-76
2023/07/21 02:12:53;;;;;;;9.70;8.57;;;;;;;16.00;100.00;101081.31;5045311;28;20076;-75
2023/07/21 02:15:18;;;;;;;9.10;8.20;;;;;;;15.99;100.00;101078.75;5035245;28;20029;-75
2023/07/21 02:17:48;;;;;;;9.68;8.18;;;;;;;15.98;100.00;101079.75;5038290;28;20156;-75
2023/07/21 02:20:17;;;;;;;9.10;8.20;;;;;;;15.94;100.00;101079.13;5055019;28;20029;-75
2023/07/21 02:22:52;;;;;;;8.88;7.97;;;;;;;15.93;100.00;101076.56;5045034;28;20037;-75
2023/07/21 02:25:17;;;;;;;12.15;9.02;;;;;;;15.98;100.00;101077.91;5055874;28;20037;-75
2023/07/21 02:27:46;;;;;;;10.75;8.85;;;;;;;15.86;100.00;101080.72;5043338;28;20433;-75
2023/07/21 02:30:15;;;;;;;10.00;8.85;;;;;;;15.89;100.00;101078.66;5061125;28;20486;-74
2023/07/21 02:32:47;;;;;;;11.00;9.30;;;;;;;15.82;100.00;101073.91;5038964;28;20037;-74
2023/07/21 02:35:15;;;;;;;10.88;8.85;;;;;;;15.78;100.00;101074.16;5061962;28;20036;-75
2023/07/21 02:37:43;;;;;;;11.48;9.27;;;;;;;15.79;100.00;101078.53;5049963;28;20053;-75
2023/07/21 02:40:17;;;;;;;14.85;10.60;;;;;;;15.75;100.00;101076.22;5045720;28;20037;-75
2023/07/21 02:42:43;;;;;;;11.32;7.63;;;;;;;15.49;100.00;101079.16;5036828;28;20022;-75
2023/07/21 02:45:15;;;;;;;9.93;7.72;;;;;;;15.38;100.00;101075.63;5046973;28;20045;-75
2023/07/21 02:47:43;;;;;;;10.18;8.07;;;;;;;15.44;100.00;101070.63;5059175;28;20146;-75
2023/07/21 02:50:15;;;;;;;14.02;9.20;;;;;;;15.46;100.00;101071.38;5048281;28;21052;-75
2023/07/21 02:52:44;;;;;;;12.88;9.45;;;;;;;15.41;100.00;101065.50;5033093;28;20179;-75
2023/07/21 02:55:17;;;;;;;11.15;9.05;;;;;;;15.41;100.00;101065.50;5051207;28;20041;-75
2023/07/21 02:57:46;;;;;;;12.43;10.40;;;;;;;15.37;100.00;101069.41;5059199;28;20079;-75
2023/07/21 03:00:17;;;;;;;;;;;;;;;15.31;100.00;101053.75;5084592;27;20033;-75
2023/07/21 03:02:56;;;;;;;12.68;9.88;;;;;;;15.21;100.00;101061.72;5083022;28;19979;-75
2023/07/21 03:05:24;;;;;;;13.13;10.60;;;;;;;15.15;100.00;101061.31;5060096;28;20033;-75
2023/07/21 03:07:50;;;;;;;10.20;8.52;;;;;;;14.99;100.00;101056.31;5056275;28;20083;-75
2023/07/21 03:10:24;;;;;;;15.18;10.60;;;;;;;15.00;100.00;101060.69;5054764;28;20215;-75
2023/07/21 03:12:52;;;;;;;11.80;10.35;;;;;;;15.05;100.00;101058.50;5057906;28;20032;-76
2023/07/21 03:15:31;;;;;;;13.02;9.80;;;;;;;15.09;100.00;101056.44;5063868;28;20203;-75
2023/07/21 03:18:02;;;;;;;12.50;9.52;;;;;;;15.09;100.00;101051.06;5063983;28;20151;-75
2023/07/21 03:20:33;;;;;;;14.38;10.02;;;;;;;15.07;100.00;101050.34;5055438;28;20930;-75
2023/07/21 03:23:00;;;;;;;10.82;9.32;;;;;;;15.01;100.00;101046.31;5058726;28;20170;-75
2023/07/21 03:25:30;;;;;;;10.55;8.68;;;;;;;14.89;100.00;101045.44;5049029;28;20100;-75
2023/07/21 03:27:56;;;;;;;12.93;9.35;;;;;;;14.95;100.00;101053.00;5044504;28;20041;-75
2023/07/21 03:30:22;;;;;;;12.60;11.30;;;;;;;14.95;100.00;101050.31;5044641;28;20064;-75
2023/07/21 03:32:54;;;;;;;12.32;10.82;;;;;;;14.96;100.00;101045.81;5078601;28;20144;-75
2023/07/21 03:35:19;;;;;;;13.00;11.68;;;;;;;15.03;100.00;101053.28;5051085;28;20037;-74
2023/07/21 03:37:48;;;;;;;10.82;9.73;;;;;;;14.88;100.00;101049.09;5049890;28;20128;-75
2023/07/21 03:40:17;;;;;;;10.20;9.23;;;;;;;14.88;100.00;101048.25;5047718;28;20056;-75
2023/07/21 03:42:44;;;;;;;9.38;7.82;;;;;;;14.86;100.00;101051.06;5047369;28;20107;-75
2023/07/21 03:45:14;;;;;;;10.80;8.75;;;;;;;14.84;100.00;101055.69;5049685;28;20988;-75
2023/07/21 03:47:46;;;;;;;9.75;8.73;;;;;;;14.84;100.00;101052.13;5048330;28;20041;-76
2023/07/21 03:50:15;;;;;;;10.80;8.85;;;;;;;14.86;100.00;101063.59;5038473;28;20040;-75
2023/07/21 03:52:45;;;;;;;12.48;9.88;;;;;;;14.88;100.00;101054.47;5064120;28;20048;-76
2023/07/21 03:55:18;;;;;;;11.27;9.70;;;;;;;14.88;100.00;101056.31;5059087;28;20040;-75
2023/07/21 03:57:44;;;;;;;12.02;10.73;;;;;;;14.88;100.00;101053.63;5054019;28;20111;-75
2023/07/21 04:00:16;;;;;;;14.80;9.40;;;;;;;14.89;100.00;101050.81;5060083;28;20083;-75
2023/07/21 04:02:45;;;;;;;10.27;9.18;;;;;;;14.91;100.00;101053.34;5051254;28;20212;-75
2023/07/21 04:05:15;;;;;;;11.27;10.05;;;;;;;14.98;100.00;101052.78;5061059;28;20852;-76
2023/07/21 04:07:43;;;;;;;14.77;10.80;;;;;;;15.13;100.00;101041.81;5050779;28;20041;-75
2023/07/21 04:10:09;;;;;;;20.70;12.90;;;;;;;15.33;100.00;101051.81;5049857;28;20059;-75
2023/07/21 04:12:34;;;;;;;15.18;11.70;;;;;;;15.59;100.00;101043.47;5057368;28;20422;-75
2023/07/21 04:15:03;;;;;;;9.70;8.70;;;;;;;15.71;100.00;101035.31;5064010;28;20035;-75
2023/07/21 04:17:28;;;;;;;12.32;9.55;;;;;;;15.78;100.00;101032.97;5049137;28;20056;-75
2023/07/21 04:19:56;;;;;;;14.38;10.20;;;;;;;16.08;100.00;101034.09;5046862;28;20064;-75
2023/07/21 04:22:22;;;;;;;13.45;10.77;;;;;;;16.29;100.00;101029.59;5038936;28;20036;-75
2023/07/21 04:24:48;;;;;;;12.25;10.68;;;;;;;16.18;100.00;101029.66;5028711;28;20584;-75
2023/07/21 04:27:18;;;;;;;13.93;11.30;;;;;;;15.95;100.00;101023.50;5042876;28;20134;-76
2023/07/21 04:29:43;;;;;;;15.07;12.98;;;;;;;15.83;100.00;101027.22;5042110;28;20031;-76
2023/07/21 04:32:09;;;;;;;21.27;15.90;;;;;;;15.98;100.00;101032.16;5064470;28;20047;-75
2023/07/21 04:34:43;;;;;;;15.77;11.20;;;;;;;16.06;100.00;101031.53;5047229;28;20119;-76
2023/07/21 04:37:17;;;;;;;12.45;10.30;;;;;;;16.52;100.00;101036.59;5077422;28;20499;-75
2023/07/21 04:39:49;;;;;;;15.27;10.13;;;;;;;17.22;98.04;101035.03;5042404;28;20033;-76
2023/07/21 04:42:15;;;;;;;11.52;9.82;;;;;;;18.02;92.27;101030.56;5031242;28;20119;-75
2023/07/21 04:44:44;;;;;;;15.35;11.20;;;;;;;18.31;87.29;101019.78;5048767;28;20110;-75
2023/07/21 04:47:13;;;;;;;16.83;10.50;;;;;;;18.29;87.24;101019.06;5048699;28;20048;-75
2023/07/21 04:49:54;;;;;;;14.35;10.63;;;;;;;18.96;85.48;101020.81;5050997;28;20036;-75
2023/07/21 04:52:21;;;;;;;14.23;11.45;;;;;;;19.39;83.27;101022.09;5045994;28;20029;-75
2023/07/21 04:54:46;;;;;;;16.52;12.13;;;;;;;19.82;80.21;101021.41;5081490;28;20045;-75
2023/07/21 04:57:16;;;;;;;18.17;12.88;;;;;;;19.90;79.77;101020.66;5047987;28;20092;-76
2023/07/21 04:59:46;;;;;;;22.35;12.82;;;;;;;20.19;80.15;101012.34;5034969;28;20037;-75
2023/07/21 05:02:17;;;;;;;22.05;14.23;;;;;;;20.44;79.13;101013.38;5057554;28;20033;-76
2023/07/21 05:04:43;;;;;;;16.98;13.30;;;;;;;20.75;78.23;101012.97;5060083;28;20041;-76
2023/07/21 05:07:09;;;;;;;23.70;16.42;;;;;;;20.53;80.96;101008.91;5081815;28;20051;-76
2023/07/21 05:09:44;;;;;;;28.40;17.05;;;;;;;20.26;82.76;101005.28;5022032;28;20041;-76
2023/07/21 05:12:14;;;;;;;26.70;16.60;;;;;;;20.58;84.70;101001.16;5031937;28;20120;-75
2023/07/21 05:14:57;;;;;;;24.33;15.30;;;;;;;20.78;82.66;101005.34;5044366;28;20075;-75
2023/07/21 05:17:54;;;;;;;21.13;15.90;;;;;;;20.80;82.64;101003.34;5043237;28;20041;-75
2023/07/21 05:20:52;;;;;;;26.38;17.70;;;;;;;19.91;85.71;101006.13;5046124;28;21044;-75
2023/07/21 05:23:26;;;;;;;21.83;16.13;;;;;;;19.29;91.45;101011.31;5030457;28;20049;-76
2023/07/21 05:26:00;;;;;;;23.10;16.48;;;;;;;18.96;95.74;101010.00;5028006;28;20173;-76
2023/07/21 05:28:29;;;;;;;25.10;17.20;;;;;;;18.31;100.00;101015.22;5032119;28;20119;-75
2023/07/21 05:30:56;;;;;;;27.50;17.88;;;;;;;17.75;100.00;101024.00;5032383;28;20037;-76
2023/07/21 05:33:33;;;;;;;23.58;18.45;;;;;;;17.58;100.00;101020.13;5027646;28;20171;-74
2023/07/21 05:36:09;;;;;;;26.08;19.27;;;;;;;17.90;100.00;101024.44;5031913;28;20722;-75
2023/07/21 05:38:37;;;;;;;32.35;19.13;;;;;;;18.09;100.00;101029.88;5033523;28;20127;-75
2023/07/21 05:41:04;;;;;;;26.85;19.65;;;;;;;17.59;100.00;101018.25;5030829;28;20730;-75
2023/07/21 05:43:34;;;;;;;29.55;20.25;;;;;;;17.85;100.00;101027.56;5031627;28;20088;-74
2023/07/21 05:46:05;;;;;;;28.98;19.08;;;;;;;17.93;100.00;101036.81;5048030;28;20898;-75
2023/07/21 05:48:32;;;;;;;27.37;20.77;;;;;;;17.97;100.00;101032.84;5031627;28;20048;-74
2023/07/21 05:51:01;;;;;;;22.95;17.65;;;;;;;17.88;100.00;101031.84;5025768;28;20467;-75
2023/07/21 05:53:27;;;;;;;26.00;19.35;;;;;;;18.09;100.00;101031.72;5029570;28;20108;-73
2023/07/21 05:55:52;;;;;;;27.02;18.83;;;;;;;18.09;100.00;101032.56;5046236;28;20353;-75
2023/07/21 05:58:30;;;;;;;29.88;19.63;;;;;;;18.24;100.00;101027.59;5032504;28;20781;-74
2023/07/21 06:00:56;;;;;;;25.65;17.70;;;;;;;18.53;100.00;101021.34;5047799;28;20626;-75
2023/07/21 06:03:21;;;;;;;22.63;16.65;;;;;;;19.29;100.00;101030.25;5079332;28;20423;-74
2023/07/21 06:05:48;;;;;;;19.55;13.48;;;;;;;19.81;100.00;101024.28;5080011;28;20183;-74
2023/07/21 06:08:42;;;;;;;14.60;11.07;;;;;;;20.44;97.50;101021.53;5040440;28;20181;-74
2023/07/21 06:11:26;;;;;;;11.77;10.10;;;;;;;21.35;89.84;101018.41;5044783;28;20408;-75
2023/07/21 06:14:20;;;;;;;13.98;9.43;;;;;;;22.09;82.84;101014.91;5045753;28;20155;-75
2023/07/21 06:17:08;;;;;;;9.07;8.13;;;;;;;22.13;77.96;101010.84;5044638;28;20091;-75
2023/07/21 06:19:37;;;;;;;8.70;7.80;;;;;;;22.52;75.71;101009.31;5077782;28;20044;-75
2023/07/21 06:22:03;;;;;;;8.45;7.60;;;;;;;22.61;72.22;101002.88;5050958;28;20046;-76
2023/07/21 06:24:35;;;;;;;9.32;7.07;;;;;;;22.57;71.81;100996.91;5027951;28;20037;-75
2023/07/21 06:27:01;;;;;;;8.57;6.90;;;;;;;22.68;70.29;101010.13;5017796;28;20346;-75
2023/07/21 06:29:28;;;;;;;8.95;7.47;;;;;;;22.56;71.63;101006.09;5038476;28;20261;-74
2023/07/21 06:31:54;;;;;;;16.52;14.25;;;;;;;22.55;69.46;101003.56;5059523;28;20474;-75
2023/07/21 06:34:23;;;;;;;20.13;15.88;;;;;;;22.36;69.34;101011.03;5054286;28;20037;-75
2023/07/21 06:37:18;;;;;;;25.42;18.40;;;;;;;22.57;67.94;101009.66;5042841;28;20068;-76
2023/07/21 06:39:48;;;;;;;19.08;12.65;;;;;;;22.72;67.27;101011.50;5046278;28;20033;-76
2023/07/21 06:42:31;;;;;;;15.25;12.73;;;;;;;22.19;68.25;101017.50;5045064;28;20185;-76
2023/07/21 06:45:21;;;;;;;21.00;16.58;;;;;;;22.49;69.11;101003.22;5041732;28;20049;-75
2023/07/21 06:48:06;;;;;;;19.75;16.60;;;;;;;22.54;68.60;101002.72;5044909;28;20503;-75
2023/07/21 06:50:52;;;;;;;28.05;24.38;;;;;;;22.64;68.95;101006.09;5077659;28;20037;-75
2023/07/21 06:53:19;;;;;;;31.38;26.20;;;;;;;22.92;67.70;101006.56;5055951;28;20044;-76
2023/07/21 06:55:49;;;;;;;29.48;22.98;;;;;;;23.07;68.59;101005.84;5061975;28;20094;-76
2023/07/21 06:58:17;;;;;;;22.73;18.73;;;;;;;23.25;67.12;101001.03;5075205;28;20127;-76
2023/07/21 07:00:46;;;;;;;22.27;19.92;;;;;;;23.09;67.81;100996.47;5076778;28;20036;-75
2023/07/21 07:03:16;;;;;;;33.13;28.45;;;;;;;23.19;66.94;101002.59;5081853;28;20069;-76
2023/07/21 07:05:45;;;;;;;39.75;30.45;;;;;;;23.21;66.04;100995.09;5095292;27;20032;-76
2023/07/21 07:08:17;;;;;;;39.35;32.05;;;;;;;23.07;66.88;100994.97;5065402;28;20075;-76
2023/07/21 07:10:49;;;;;;;35.50;31.77;;;;;;;22.49;69.39;100996.91;5058453;28;20576;-76
2023/07/21 07:13:16;;;;;;;36.88;31.77;;;;;;;22.96;67.22;100993.47;5081819;27;20126;-76
2023/07/21 07:15:52;;;;;;;31.73;26.92;;;;;;;22.99;67.06;100987.66;5078621;28;21204;-75
2023/07/21 07:18:18;;;;;;;26.73;21.85;;;;;;;23.15;65.45;100989.50;5057509;28;20732;-76
2023/07/21 07:20:49;;;;;;;30.70;27.23;;;;;;;23.42;64.08;100980.03;5065432;27;20058;-76
2023/07/21 07:23:16;;;;;;;20.17;17.83;;;;;;;23.87;61.81;100981.16;5085932;28;20040;-76
2023/07/21 07:25:49;;;;;;;22.75;18.30;;;;;;;24.14;60.46;100971.59;5084635;28;20067;-76
2023/07/21 07:28:20;;;;;;;21.48;19.05;;;;;;;24.00;59.90;100982.28;5056987;28;21239;-75
2023/07/21 07:30:47;;;;;;;19.42;16.20;;;;;;;24.09;61.80;100972.13;5079927;28;20044;-75
2023/07/21 07:33:16;;;;;;;19.48;15.65;;;;;;;24.37;58.73;100972.44;5050795;28;20091;-76
2023/07/21 07:35:52;;;;;;;16.83;14.90;;;;;;;24.73;62.22;100971.75;5036103;28;20045;-76
2023/07/21 07:38:23;;;;;;;18.60;16.35;;;;;;;24.15;57.93;100973.31;5025936;28;20041;-75
2023/07/21 07:40:50;;;;;;;18.90;14.60;;;;;;;24.50;59.27;100971.84;5034272;28;20122;-76
2023/07/21 07:43:16;;;;;;;8.68;7.28;;;;;;;24.62;57.33;100975.78;5048402;28;20101;-75
2023/07/21 07:45:48;;;;;;;8.95;6.03;;;;;;;24.88;57.93;100975.34;5050184;28;20041;-76
2023/07/21 07:48:17;;;;;;;17.67;6.15;;;;;;;25.04;57.14;100971.56;5048529;28;20047;-76
2023/07/21 07:50:45;;;;;;;8.43;5.70;;;;;;;25.38;55.14;100975.63;5049046;28;20064;-76
2023/07/21 07:53:21;;;;;;;7.40;5.68;;;;;;;25.24;54.77;100982.81;5036518;28;20044;-74
2023/07/21 07:55:47;;;;;;;8.38;5.95;;;;;;;25.39;53.28;100983.63;5034379;28;20088;-76
2023/07/21 07:58:15;;;;;;;7.78;5.05;;;;;;;25.71;53.58;100976.88;5047808;28;20756;-76
2023/07/21 08:00:47;;;;;;;5.05;4.55;;;;;;;25.43;53.23;100973.19;5049236;28;20124;-76
2023/07/21 08:03:16;;;;;;;7.03;4.63;;;;;;;25.40;52.69;100971.66;5049474;28;20628;-76
2023/07/21 08:05:51;;;;;;;15.85;6.60;;;;;;;25.48;50.96;100974.28;5048123;28;20048;-75
2023/07/21 08:08:20;;;;;;;8.50;6.25;;;;;;;25.36;52.90;100973.09;5047587;28;20029;-76
2023/07/21 08:10:46;;;;;;;10.05;6.85;;;;;;;25.29;50.64;100972.16;5042108;28;20042;-77
2023/07/21 08:13:18;;;;;;;8.68;5.78;;;;;;;25.38;52.52;100981.09;5049450;28;20783;-75
2023/07/21 08:15:46;;;;;;;14.02;8.68;;;;;;;25.63;54.24;100984.34;5048137;28;20548;-75
2023/07/21 08:18:18;;;;;;;9.27;6.95;;;;;;;26.01;51.58;100976.81;5049002;28;20056;-76
2023/07/21 08:20:52;;;;;;;12.68;9.55;;;;;;;26.03;53.70;100975.56;5042923;28;20075;-75
2023/07/21 08:23:18;;;;;;;19.50;10.68;;;;;;;26.56;52.75;100967.88;5047901;28;20036;-74
2023/07/21 08:25:45;;;;;;;15.88;10.68;;;;;;;26.89;49.99;100972.69;5048476;28;20111;-75
2023/07/21 08:28:17;;;;;;;10.98;9.50;;;;;;;26.98;49.45;100966.03;5030474;28;20539;-73
2023/07/21 08:30:46;;;;;;;14.40;10.75;;;;;;;26.44;48.95;100979.53;5046362;28;20029;-75
2023/07/21 08:33:19;;;;;;;13.45;9.85;;;;;;;26.38;50.72;100975.66;5044866;28;20129;-74
2023/07/21 08:35:48;;;;;;;17.38;10.45;;;;;;;25.99;49.73;100987.06;5079423;27;20033;-74
2023/07/21 08:38:22;;;;;;;11.75;8.75;;;;;;;25.49;51.17;100986.06;5044759;28;20100;-74
2023/07/21 08:40:50;;;;;;;18.98;9.48;;;;;;;25.37;52.20;100982.97;5046303;28;20044;-74
2023/07/21 08:43:17;;;;;;;13.73;8.15;;;;;;;25.52;52.99;100983.81;5036119;28;20059;-74
2023/07/21 08:45:49;;;;;;;11.23;6.53;;;;;;;25.70;53.40;100983.38;5036228;28;20041;-75
2023/07/21 08:48:17;;;;;;;7.72;5.10;;;;;;;25.78;52.05;100987.91;5046657;28;20171;-74
2023/07/21 08:50:48;;;;;;;6.75;5.20;;;;;;;25.55;50.80;100982.56;5048601;28;20090;-74
2023/07/21 08:53:17;;;;;;;8.40;5.90;;;;;;;25.39;51.19;100986.34;5041581;28;20138;-75
2023/07/21 08:55:46;;;;;;;10.45;6.05;;;;;;;25.18;50.98;100983.56;5040630;28;20136;-75
2023/07/21 08:58:19;;;;;;;12.00;5.85;;;;;;;25.20;51.38;100976.91;5042670;28;20131;-75
2023/07/21 09:00:46;;;;;;;10.38;5.72;;;;;;;25.14;51.35;100976.78;5046567;28;20076;-74
2023/07/21 09:03:27;;;;;;;7.32;5.63;;;;;;;25.23;51.36;100984.69;5047767;28;20045;-75
2023/07/21 09:05:55;;;;;;;8.00;4.93;;;;;;;25.15;51.49;100982.06;5048107;28;20033;-75
2023/07/21 09:08:23;;;;;;;11.40;6.32;;;;;;;24.99;51.11;100979.47;5046088;28;20075;-74
2023/07/21 09:10:50;;;;;;;8.57;4.70;;;;;;;25.15;52.02;100981.19;5051684;28;20158;-74
2023/07/21 09:13:18;;;;;;;10.25;5.28;;;;;;;25.16;52.37;100980.19;5046705;28;21019;-75
2023/07/21 09:15:56;;;;;;;9.35;6.00;;;;;;;25.12;52.28;100981.59;5060949;28;20037;-75
2023/07/21 09:18:45;;;;;;;11.55;5.45;;;;;;;25.16;53.31;100985.66;5042246;28;20037;-74
2023/07/21 09:21:22;;;;;;;7.82;5.10;;;;;;;25.09;50.62;100982.81;5073589;28;20052;-75
2023/07/21 09:23:49;;;;;;;7.15;5.07;;;;;;;24.84;49.32;100987.66;5045293;28;20227;-75
2023/07/21 09:26:22;;;;;;;10.43;7.65;;;;;;;24.86;51.66;100982.03;5047656;28;20754;-75
2023/07/21 09:28:48;;;;;;;8.63;6.15;;;;;;;24.84;50.75;100984.09;5046181;28;20037;-74
2023/07/21 09:31:29;;;;;;;7.97;5.75;;;;;;;24.47;52.00;100981.22;5047864;28;20483;-75
2023/07/21 09:34:04;;;;;;;9.98;5.35;;;;;;;24.49;53.11;100973.69;5046092;28;20143;-76
2023/07/21 09:36:30;;;;;;;10.57;6.28;;;;;;;24.67;53.18;100983.44;5041176;28;20029;-75
2023/07/21 09:38:55;;;;;;;12.00;6.97;;;;;;;24.43;53.53;100981.78;5043628;28;20133;-74
2023/07/21 09:41:25;;;;;;;9.48;7.18;;;;;;;24.53;53.47;100982.34;5044116;28;20112;-74
2023/07/21 09:43:53;;;;;;;9.57;6.97;;;;;;;25.29;53.41;100981.19;5043332;28;20036;-75
2023/07/21 09:46:20;;;;;;;6.72;5.82;;;;;;;25.52;51.64;100974.75;5044586;28;20105;-74
2023/07/21 09:48:47;;;;;;;8.10;5.00;;;;;;;25.71;53.80;100970.56;5042176;28;20033;-75
2023/07/21 09:51:19;;;;;;;7.78;4.55;;;;;;;26.03;50.87;100970.09;5047149;28;20041;-74
2023/07/21 09:53:49;;;;;;;9.98;5.60;;;;;;;26.25;53.26;100968.19;5059492;28;21026;-74
2023/07/21 09:56:20;;;;;;;5.53;3.67;;;;;;;27.07;50.69;100964.84;5046236;28;20113;-75
2023/07/21 09:58:51;;;;;;;5.97;4.32;;;;;;;26.84;48.11;100961.50;5043800;28;20044;-74
2023/07/21 10:01:19;;;;;;;6.05;3.97;;;;;;;26.45;48.27;100962.91;5050924;28;20036;-75
2023/07/21 10:03:45;;;;;;;4.28;3.67;;;;;;;26.46;48.35;100961.06;5043149;28;21162;-75
2023/07/21 10:06:22;;;;;;;4.22;3.80;;;;;;;26.50;49.16;100960.44;5041186;28;20067;-75
2023/07/21 10:08:50;;;;;;;4.45;3.08;;;;;;;27.10;49.56;100960.84;5043217;28;20080;-75
2023/07/21 10:11:16;;;;;;;4.35;3.15;;;;;;;27.06;47.33;100959.53;5046135;28;20105;-74
2023/07/21 10:13:48;;;;;;;4.63;3.28;;;;;;;27.29;46.41;100959.25;5031618;28;20124;-75
2023/07/21 10:16:20;;;;;;;5.65;4.15;;;;;;;27.58;43.38;100953.47;5063135;28;20136;-75
2023/07/21 10:19:08;;;;;;;3.70;3.10;;;;;;;27.87;44.60;100956.94;5051893;28;20045;-75
2023/07/21 10:21:54;;;;;;;8.20;3.78;;;;;;;27.75;44.92;100953.13;5039469;28;20155;-75
2023/07/21 10:24:28;;;;;;;4.45;3.13;;;;;;;26.89;44.54;100947.22;5039463;28;20037;-75
2023/07/21 10:27:05;;;;;;;3.10;2.83;;;;;;;26.84;44.17;100950.56;5048364;28;20029;-74
2023/07/21 10:29:31;;;;;;;5.82;2.83;;;;;;;25.99;44.38;100957.00;5051948;28;20042;-74
2023/07/21 10:32:02;;;;;;;3.70;1.92;;;;;;;25.43;43.60;100960.38;5050076;28;20040;-73
2023/07/21 10:34:34;;;;;;;3.78;1.92;;;;;;;25.39;43.79;100953.59;5055502;28;20683;-75
2023/07/21 10:37:04;;;;;;;2.63;1.88;;;;;;;25.36;43.43;100958.59;5050781;28;20037;-74
2023/07/21 10:39:32;;;;;;;7.50;1.95;;;;;;;26.12;44.03;100950.84;5050385;28;20553;-74
2023/07/21 10:42:03;;;;;;;2.65;2.28;;;;;;;26.71;43.29;100936.78;5051160;28;20091;-74
2023/07/21 10:44:47;;;;;;;3.88;2.70;;;;;;;26.46;42.52;100941.91;5041846;28;20120;-76
2023/07/21 10:47:21;;;;;;;3.42;2.45;;;;;;;26.48;44.24;100939.81;5044305;28;20085;-74
2023/07/21 10:49:48;;;;;;;6.78;3.50;;;;;;;26.27;44.16;100941.50;5043976;28;20099;-75
2023/07/21 10:52:17;;;;;;;5.50;3.33;;;;;;;26.47;44.75;100943.59;5051673;28;20044;-73
2023/07/21 10:54:46;;;;;;;4.95;2.72;;;;;;;26.49;43.79;100941.50;5083596;27;20049;-74
2023/07/21 10:57:15;;;;;;;2.78;2.55;;;;;;;26.37;43.94;100943.06;5066383;28;20126;-74
2023/07/21 10:59:46;;;;;;;7.40;2.30;;;;;;;26.34;44.05;100942.41;5059037;28;20044;-74
2023/07/21 11:02:23;;;;;;;5.25;2.40;;;;;;;26.19;44.63;100940.78;5047721;28;20132;-74
2023/07/21 11:04:49;;;;;;;3.95;2.75;;;;;;;26.20;45.43;100943.31;5054508;28;20033;-74
2023/07/21 11:07:16;;;;;;;4.18;3.08;;;;;;;26.33;44.70;100942.59;5051815;28;20033;-74
2023/07/21 11:09:47;;;;;;;5.78;2.90;;;;;;;26.32;44.90;100949.13;5041828;28;20107;-73
2023/07/21 11:12:19;;;;;;;5.47;3.83;;;;;;;25.73;45.71;100961.13;5050911;28;20047;-73
2023/07/21 11:14:46;;;;;;;3.75;3.40;;;;;;;25.75;46.85;100955.50;5046711;28;20033;-73
2023/07/21 11:17:12;;;;;;;6.40;3.25;;;;;;;25.70;46.10;100960.66;5052031;28;20049;-73
2023/07/21 11:19:38;;;;;;;5.13;3.05;;;;;;;25.88;47.07;100954.81;5071993;28;20041;-73
2023/07/21 11:22:06;;;;;;;6.95;3.50;;;;;;;25.61;46.62;100953.66;5057865;28;20544;-74
2023/07/21 11:24:32;;;;;;;4.90;3.22;;;;;;;25.12;47.07;100954.31;5062382;28;20033;-73
2023/07/21 11:27:09;;;;;;;7.05;3.65;;;;;;;24.68;47.39;100955.94;5055055;28;20103;-76
2023/07/21 11:29:50;;;;;;;7.03;3.30;;;;;;;24.83;47.58;100950.50;5072475;28;20562;-76